Time;durP1;ratioP1;P1;durP2;ratioP2;P2;SDS_P1;SDS_P2;PMS_P1;PMS_P2;Temp;Humidity;BMP_temperature;BMP_pressure;BME280_temperature;BME280_humidity;BME280_pressure;Samples;Min_cycle;Max_cycle;Signal;HPM_P1;HPM_P2
2023/03/14 00:01:13;;;;;;;17.00;10.60;;;;;;;9.01;70.37;98507.70;131074;1248;107527;-76
2023/03/14 00:04:18;;;;;;;14.50;8.50;;;;;;;8.96;70.40;98500.84;131130;1252;107435;-76
2023/03/14 00:07:25;;;;;;;12.50;7.90;;;;;;;8.92;70.53;98493.06;131140;1248;107915;-77
2023/03/14 00:10:31;;;;;;;15.70;8.80;;;;;;;8.89;70.29;98484.95;131248;1252;107596;-77
2023/03/14 00:13:37;;;;;;;12.30;7.50;;;;;;;8.84;70.51;98482.48;131225;1247;107243;-76
2023/03/14 00:16:42;;;;;;;14.80;8.70;;;;;;;8.79;70.33;98473.01;131028;1253;107459;-76
2023/03/14 00:19:49;;;;;;;12.20;8.00;;;;;;;8.72;70.48;98471.52;131267;1250;107475;-76
2023/03/14 00:22:55;;;;;;;15.60;8.80;;;;;;;8.67;70.50;98473.17;131160;1254;107083;-77
2023/03/14 00:26:03;;;;;;;13.20;8.30;;;;;;;8.61;70.53;98471.79;131123;1247;107634;-76
2023/03/14 00:29:08;;;;;;;12.20;7.60;;;;;;;8.55;70.46;98471.83;131088;1247;107544;-77
2023/03/14 00:32:14;;;;;;;13.00;7.40;;;;;;;8.50;70.41;98473.69;131077;1253;107256;-76
2023/03/14 00:35:20;;;;;;;13.20;7.50;;;;;;;8.45;70.42;98478.13;131123;1254;107609;-76
2023/03/14 00:38:26;;;;;;;13.70;7.60;;;;;;;8.43;70.55;98477.08;131313;1254;106551;-76
2023/03/14 00:41:32;;;;;;;11.00;7.30;;;;;;;8.46;70.51;98473.63;131408;1252;107505;-77
2023/03/14 00:44:39;;;;;;;13.60;7.60;;;;;;;8.47;70.40;98464.08;131207;1253;107457;-77
2023/03/14 00:47:46;;;;;;;13.40;7.70;;;;;;;8.48;70.41;98461.63;131104;1253;107517;-76
2023/03/14 00:50:52;;;;;;;14.30;7.60;;;;;;;8.48;70.25;98454.27;131081;1250;108670;-76
2023/03/14 00:53:58;;;;;;;13.30;7.70;;;;;;;8.45;70.29;98441.61;131163;1252;107510;-77
2023/03/14 00:57:03;;;;;;;13.40;7.60;;;;;;;8.42;70.42;98432.27;131332;1252;107487;-77
2023/03/14 01:00:14;;;;;;;13.30;7.40;;;;;;;8.37;70.30;98433.49;131132;1250;107500;-77
2023/03/14 01:03:20;;;;;;;11.40;7.70;;;;;;;8.33;70.32;98436.17;131301;1253;107387;-77
2023/03/14 01:06:28;;;;;;;11.60;7.20;;;;;;;8.28;70.21;98438.48;131082;1252;107739;-77
2023/03/14 01:09:33;;;;;;;12.30;7.50;;;;;;;8.23;70.35;98430.52;131075;1252;108677;-77
2023/03/14 01:12:39;;;;;;;14.10;7.40;;;;;;;8.19;70.26;98423.77;131068;1248;107260;-77
2023/03/14 01:15:44;;;;;;;12.30;7.20;;;;;;;8.16;70.28;98422.73;131177;1252;108699;-77
2023/03/14 01:18:51;;;;;;;11.80;7.60;;;;;;;8.12;70.34;98423.16;131136;1250;107546;-77
2023/03/14 01:21:56;;;;;;;12.80;7.60;;;;;;;8.09;70.28;98419.15;131051;1252;107551;-77
2023/03/14 01:25:02;;;;;;;12.10;7.20;;;;;;;8.05;70.31;98421.92;131152;1252;107564;-77
2023/03/14 01:28:07;;;;;;;13.50;7.80;;;;;;;8.01;70.39;98415.41;131086;1260;108130;-77
2023/03/14 01:31:14;;;;;;;14.40;7.10;;;;;;;7.98;70.36;98413.03;131176;1252;107460;-77
2023/03/14 01:34:20;;;;;;;12.50;6.70;;;;;;;7.96;70.40;98412.35;131138;1252;107534;-78
2023/03/14 01:37:27;;;;;;;16.10;7.90;;;;;;;7.97;70.32;98412.05;131021;1252;107261;-77
2023/03/14 01:40:42;;;;;;;13.30;7.30;;;;;;;8.01;70.24;98406.26;131088;1252;107245;-79
2023/03/14 01:43:50;;;;;;;14.10;8.00;;;;;;;8.06;70.35;98402.48;131018;1254;109654;-78
2023/03/14 01:46:55;;;;;;;15.00;8.40;;;;;;;8.07;70.26;98401.52;131013;1253;107558;-77
2023/03/14 01:50:07;;;;;;;11.20;6.90;;;;;;;8.05;70.18;98403.61;131114;1252;107532;-77
2023/03/14 01:53:14;;;;;;;12.10;7.20;;;;;;;8.04;70.18;98399.71;131086;1253;107455;-77
2023/03/14 01:56:21;;;;;;;11.40;7.10;;;;;;;8.01;70.19;98394.77;130998;1252;107534;-77
2023/03/14 01:59:30;;;;;;;12.70;7.30;;;;;;;7.98;70.19;98387.73;131058;1252;107853;-77
2023/03/14 02:02:36;;;;;;;11.20;6.60;;;;;;;7.94;70.09;98385.17;131135;1252;107411;-77
2023/03/14 02:05:46;;;;;;;12.70;7.60;;;;;;;7.89;70.13;98379.60;131070;1252;107450;-76
2023/03/14 02:09:00;;;;;;;12.60;7.30;;;;;;;7.83;70.26;98365.67;131113;1250;107377;-76
2023/03/14 02:12:12;;;;;;;11.00;7.10;;;;;;;7.79;70.31;98356.75;131047;1252;107468;-77
2023/03/14 02:15:28;;;;;;;11.80;7.30;;;;;;;7.75;70.25;98354.24;130912;1252;246356;-76
2023/03/14 02:18:40;;;;;;;12.00;7.30;;;;;;;7.72;70.36;98364.31;131085;1252;107380;-77
2023/03/14 02:22:14;;;;;;;11.80;7.50;;;;;;;7.69;70.48;98357.33;130954;1248;107608;-77
2023/03/14 02:25:41;;;;;;;12.80;7.50;;;;;;;7.67;70.48;98347.95;131168;1252;107423;-76
2023/03/14 02:28:48;;;;;;;10.90;6.60;;;;;;;7.65;70.58;98352.79;131135;1253;107511;-77
2023/03/14 02:31:54;;;;;;;10.20;5.90;;;;;;;7.64;70.55;98356.80;131044;1252;107134;-77
2023/03/14 02:35:04;;;;;;;12.60;7.20;;;;;;;7.66;70.59;98355.56;131103;1252;107628;-76
2023/03/14 02:38:16;;;;;;;12.30;7.70;;;;;;;7.70;70.44;98355.42;131043;1252;107359;-76
2023/03/14 02:41:23;;;;;;;12.90;7.20;;;;;;;7.74;70.55;98350.02;131089;1252;106467;-76
2023/03/14 02:44:37;;;;;;;11.40;7.30;;;;;;;7.76;70.49;98355.39;131116;1254;107512;-76
2023/03/14 02:47:48;;;;;;;11.90;7.50;;;;;;;7.77;70.43;98347.69;131065;1252;107585;-78
2023/03/14 02:50:58;;;;;;;10.70;6.60;;;;;;;7.79;70.45;98340.36;131125;1252;107352;-76
2023/03/14 02:54:04;;;;;;;13.40;7.50;;;;;;;7.79;70.28;98345.10;131134;1250;107377;-76
2023/03/14 02:57:11;;;;;;;11.30;7.20;;;;;;;7.82;70.57;98341.27;131146;1252;107501;-77
2023/03/14 03:00:17;;;;;;;13.70;7.40;;;;;;;7.85;70.38;98329.51;131119;1248;106558;-76
2023/03/14 03:03:23;;;;;;;11.40;7.10;;;;;;;7.87;70.32;98325.45;131130;1253;107554;-77
2023/03/14 03:06:29;;;;;;;14.50;7.00;;;;;;;7.86;70.08;98324.45;131077;1252;107533;-77
2023/03/14 03:09:35;;;;;;;10.90;7.40;;;;;;;7.82;70.06;98323.55;131244;1258;107248;-77
2023/03/14 03:12:40;;;;;;;12.30;7.50;;;;;;;7.76;70.31;98319.69;131404;1252;107544;-76
2023/03/14 03:15:47;;;;;;;11.70;7.20;;;;;;;7.67;70.23;98330.14;131049;1252;107518;-77
2023/03/14 03:18:53;;;;;;;11.80;7.30;;;;;;;7.60;70.46;98326.12;131173;1252;107611;-77
2023/03/14 03:22:00;;;;;;;12.30;7.60;;;;;;;7.54;70.45;98318.03;131188;1261;107663;-77
2023/03/14 03:25:07;;;;;;;13.00;7.20;;;;;;;7.48;70.37;98313.24;131256;1248;107288;-77
2023/03/14 03:28:13;;;;;;;11.70;6.60;;;;;;;7.41;70.52;98316.13;131355;1252;107293;-76
2023/03/14 03:31:20;;;;;;;11.60;6.30;;;;;;;7.37;70.57;98329.08;131086;1252;107489;-77
2023/03/14 03:34:28;;;;;;;11.70;6.50;;;;;;;7.35;70.65;98334.19;131252;1252;107482;-76
2023/03/14 03:37:35;;;;;;;12.90;7.10;;;;;;;7.37;70.36;98330.39;131164;1252;107453;-77
2023/03/14 03:40:44;;;;;;;13.50;6.90;;;;;;;7.40;70.37;98331.65;131131;1263;107369;-79
2023/03/14 03:43:51;;;;;;;11.70;6.40;;;;;;;7.42;70.51;98330.41;131406;1261;107360;-75
2023/03/14 03:46:57;;;;;;;10.40;6.70;;;;;;;7.42;70.49;98322.78;131384;1252;107843;-75
2023/03/14 03:50:02;;;;;;;11.50;6.60;;;;;;;7.39;70.25;98304.23;131331;1250;107516;-77
2023/03/14 03:53:08;;;;;;;11.30;7.00;;;;;;;7.33;70.54;98302.27;131399;1262;107362;-77
2023/03/14 03:56:14;;;;;;;11.40;6.90;;;;;;;7.28;70.36;98293.66;131139;1248;107607;-76
2023/03/14 03:59:20;;;;;;;9.70;6.20;;;;;;;7.23;70.56;98294.05;131082;1254;107506;-78
2023/03/14 04:02:27;;;;;;;15.00;8.40;;;;;;;7.20;70.28;98297.95;131093;1250;107447;-77
2023/03/14 04:05:34;;;;;;;14.90;8.00;;;;;;;7.18;70.30;98287.80;131092;1250;106528;-76
2023/03/14 04:08:43;;;;;;;11.40;7.20;;;;;;;7.15;70.43;98279.23;131315;1250;107547;-76
2023/03/14 04:11:55;;;;;;;11.70;6.80;;;;;;;7.13;70.52;98274.88;131283;1251;107534;-74
2023/03/14 04:15:00;;;;;;;10.90;7.00;;;;;;;7.14;70.66;98271.74;131391;1251;107825;-75
2023/03/14 04:18:06;;;;;;;11.00;6.20;;;;;;;7.18;70.48;98267.98;131385;1252;108542;-75
2023/03/14 04:21:12;;;;;;;9.50;6.00;;;;;;;7.20;70.54;98262.73;131352;1253;107465;-75
2023/03/14 04:24:24;;;;;;;11.10;5.40;;;;;;;7.23;70.67;98256.74;131092;1248;107561;-76
2023/03/14 04:27:30;;;;;;;9.10;5.60;;;;;;;7.28;70.58;98246.58;131318;1261;107366;-76
2023/03/14 04:30:37;;;;;;;9.30;5.60;;;;;;;7.37;70.33;98249.04;131214;1252;107494;-76
2023/03/14 04:33:55;;;;;;;9.90;5.60;;;;;;;7.47;70.21;98250.81;131443;1252;108513;-77
2023/03/14 04:37:08;;;;;;;9.20;5.80;;;;;;;7.55;70.26;98249.11;131309;1252;107408;-76
2023/03/14 04:40:19;;;;;;;8.30;5.30;;;;;;;7.60;69.96;98242.48;131084;1252;107508;-77
2023/03/14 04:43:25;;;;;;;10.90;6.70;;;;;;;7.60;69.70;98228.65;131421;1248;107496;-76
2023/03/14 04:46:36;;;;;;;9.00;5.20;;;;;;;7.58;69.90;98227.29;131228;1251;107476;-76
2023/03/14 04:49:45;;;;;;;16.50;6.30;;;;;;;7.54;69.86;98221.14;131225;1255;106414;-74
2023/03/14 04:52:53;;;;;;;8.00;4.90;;;;;;;7.48;69.82;98231.80;131329;1252;107360;-74
2023/03/14 04:55:59;;;;;;;22.50;9.60;;;;;;;7.44;70.01;98235.53;131149;1252;107458;-75
2023/03/14 04:59:11;;;;;;;23.30;9.80;;;;;;;7.39;69.79;98232.36;131112;1252;107439;-76
2023/03/14 05:02:19;;;;;;;10.10;5.70;;;;;;;7.35;69.90;98219.81;131167;1253;107520;-77
2023/03/14 05:05:57;;;;;;;10.50;6.00;;;;;;;7.30;69.75;98219.16;131053;1250;107584;-76
2023/03/14 05:09:21;;;;;;;8.60;5.40;;;;;;;7.26;69.76;98217.52;131126;1252;107484;-76
2023/03/14 05:12:59;;;;;;;10.10;5.50;;;;;;;7.21;69.79;98211.50;131090;1252;107523;-76
2023/03/14 05:16:36;;;;;;;11.10;5.40;;;;;;;7.18;69.73;98195.73;131176;1250;107395;-76
2023/03/14 05:20:12;;;;;;;10.80;5.70;;;;;;;7.21;70.10;98185.87;131098;1250;107462;-76
2023/03/14 05:23:36;;;;;;;12.40;6.10;;;;;;;7.26;69.74;98169.00;131084;1252;107455;-75
2023/03/14 05:27:15;;;;;;;8.30;4.60;;;;;;;7.33;70.12;98170.81;131026;1250;107191;-76
2023/03/14 05:30:22;;;;;;;22.10;10.20;;;;;;;7.39;69.76;98173.86;131121;1252;107359;-76
2023/03/14 05:33:46;;;;;;;13.80;6.80;;;;;;;7.46;69.85;98158.16;131078;1252;107533;-77
2023/03/14 05:37:12;;;;;;;8.70;4.50;;;;;;;7.57;69.71;98148.29;131065;1252;107434;-77
2023/03/14 05:40:28;;;;;;;8.40;4.60;;;;;;;7.72;69.62;98146.21;131100;1252;107459;-77
2023/03/14 05:43:41;;;;;;;8.80;5.00;;;;;;;7.85;69.41;98142.73;131170;1252;107456;-76
2023/03/14 05:47:06;;;;;;;18.40;9.00;;;;;;;8.00;69.42;98132.20;131077;1261;107344;-77
2023/03/14 05:50:33;;;;;;;9.90;5.50;;;;;;;8.09;69.19;98133.48;131183;1250;107513;-75
2023/03/14 05:53:53;;;;;;;21.50;11.30;;;;;;;8.13;69.05;98128.90;131201;1252;107567;-76
2023/03/14 05:57:17;;;;;;;14.70;8.60;;;;;;;8.19;69.05;98132.98;131164;1252;107420;-72
2023/03/14 06:00:42;;;;;;;9.90;5.40;;;;;;;8.22;68.83;98132.01;131166;1248;106847;-73
2023/03/14 06:03:56;;;;;;;8.80;5.40;;;;;;;8.25;68.77;98128.96;131362;1248;108588;-73
2023/03/14 06:07:02;;;;;;;16.10;10.00;;;;;;;8.30;68.82;98128.34;131360;1250;107528;-73
2023/03/14 06:10:10;;;;;;;12.20;9.10;;;;;;;8.35;68.70;98119.52;131231;1254;107517;-72
2023/03/14 06:13:16;;;;;;;11.00;6.30;;;;;;;8.45;68.65;98120.55;131340;1250;105691;-72
2023/03/14 06:16:22;;;;;;;6.00;4.40;;;;;;;8.59;68.51;98098.10;131356;1252;107295;-73
2023/03/14 06:19:28;;;;;;;8.30;5.30;;;;;;;8.75;68.60;98078.34;131345;1261;107330;-75
2023/03/14 06:22:34;;;;;;;6.50;4.20;;;;;;;8.93;68.54;98086.73;131283;1253;105603;-72
2023/03/14 06:25:41;;;;;;;4.80;3.70;;;;;;;9.11;68.12;98090.78;131323;1252;107550;-73
2023/03/14 06:28:47;;;;;;;6.70;4.20;;;;;;;9.28;67.85;98097.14;131347;1252;107369;-73
2023/03/14 06:31:52;;;;;;;5.70;4.00;;;;;;;9.46;67.66;98105.77;131300;1248;106765;-74
2023/03/14 06:35:00;;;;;;;7.60;4.40;;;;;;;9.62;67.55;98110.53;131176;1253;107555;-74
2023/03/14 06:38:07;;;;;;;6.40;4.00;;;;;;;9.77;67.76;98112.30;131347;1252;106528;-75
2023/03/14 06:41:13;;;;;;;6.60;4.30;;;;;;;9.89;67.40;98118.70;131380;1253;107385;-74
2023/03/14 06:44:21;;;;;;;6.00;3.90;;;;;;;9.99;67.65;98128.34;131284;1254;107385;-75
2023/03/14 06:47:28;;;;;;;5.50;3.70;;;;;;;10.10;67.61;98129.51;131255;1261;107444;-75
2023/03/14 06:50:35;;;;;;;7.80;4.20;;;;;;;10.19;67.23;98128.41;131273;1253;107535;-75
2023/03/14 06:53:40;;;;;;;6.00;4.40;;;;;;;10.28;66.58;98130.16;131281;1253;106529;-74
2023/03/14 06:56:46;;;;;;;7.00;4.70;;;;;;;10.39;66.76;98131.73;131125;1252;107427;-75
2023/03/14 06:59:53;;;;;;;7.50;4.40;;;;;;;10.51;66.69;98135.41;131033;1252;107447;-74
2023/03/14 07:02:58;;;;;;;6.80;4.30;;;;;;;10.61;66.93;98133.36;131293;1252;107243;-74
2023/03/14 07:06:08;;;;;;;7.40;4.40;;;;;;;10.71;66.41;98134.38;131276;1252;106883;-73
2023/03/14 07:09:14;;;;;;;7.00;4.70;;;;;;;10.82;66.14;98139.88;131157;1253;107507;-73
2023/03/14 07:12:25;;;;;;;7.00;4.30;;;;;;;10.93;66.34;98140.44;131169;1252;107389;-73
2023/03/14 07:15:31;;;;;;;7.30;4.90;;;;;;;11.08;66.69;98129.36;131171;1252;108743;-75
2023/03/14 07:18:41;;;;;;;6.70;4.50;;;;;;;11.23;65.88;98128.89;131153;1252;107476;-75
2023/03/14 07:21:46;;;;;;;10.00;5.00;;;;;;;11.33;65.50;98118.95;131052;1252;107348;-75
2023/03/14 07:24:52;;;;;;;6.80;4.40;;;;;;;11.40;65.18;98119.55;131073;1252;107401;-73
2023/03/14 07:28:01;;;;;;;7.00;4.70;;;;;;;11.45;65.97;98113.48;131243;1252;107570;-73
2023/03/14 07:31:08;;;;;;;6.90;4.40;;;;;;;11.52;65.38;98111.70;131167;1252;107771;-74
2023/03/14 07:34:14;;;;;;;5.90;3.60;;;;;;;11.56;65.56;98117.20;131126;1252;107381;-73
2023/03/14 07:37:22;;;;;;;5.80;3.70;;;;;;;11.60;65.72;98123.70;131080;1253;107452;-75
2023/03/14 07:40:27;;;;;;;6.50;4.30;;;;;;;11.64;65.03;98123.19;131158;1252;107567;-75
2023/03/14 07:43:34;;;;;;;7.40;4.30;;;;;;;11.66;65.17;98115.05;131294;1252;107313;-74
2023/03/14 07:46:40;;;;;;;7.10;4.60;;;;;;;11.69;64.89;98116.73;131363;1252;107404;-75
2023/03/14 07:49:46;;;;;;;44.10;22.90;;;;;;;11.70;64.62;98120.41;131424;1248;107526;-75
2023/03/14 07:52:51;;;;;;;46.20;24.90;;;;;;;11.72;64.73;98120.73;131190;1252;107441;-74
2023/03/14 07:55:57;;;;;;;13.30;8.50;;;;;;;11.78;64.70;98139.23;131077;1252;106676;-74
2023/03/14 07:59:03;;;;;;;9.10;5.40;;;;;;;11.84;64.29;98143.54;131135;1252;107557;-74
2023/03/14 08:02:12;;;;;;;9.00;6.40;;;;;;;11.90;64.81;98143.32;131251;1253;107456;-75
2023/03/14 08:05:18;;;;;;;10.50;6.50;;;;;;;11.99;64.51;98154.66;131325;1250;106684;-75
2023/03/14 08:08:23;;;;;;;14.20;9.10;;;;;;;12.06;64.37;98155.45;131084;1252;105837;-75
2023/03/14 08:11:29;;;;;;;17.40;12.00;;;;;;;12.15;64.58;98161.81;131065;1252;107514;-74
2023/03/14 08:14:35;;;;;;;10.90;6.80;;;;;;;12.33;64.68;98146.15;131088;1253;107239;-74
2023/03/14 08:17:40;;;;;;;9.90;6.10;;;;;;;12.51;64.40;98152.36;131155;1250;107512;-74
2023/03/14 08:20:46;;;;;;;8.60;5.10;;;;;;;12.66;63.45;98147.55;131118;1252;107919;-74
2023/03/14 08:23:51;;;;;;;14.20;8.30;;;;;;;12.83;63.66;98150.17;131044;1253;106361;-74
2023/03/14 08:26:57;;;;;;;7.70;5.20;;;;;;;12.96;63.74;98151.34;131092;1252;107655;-74
2023/03/14 08:30:04;;;;;;;7.90;4.80;;;;;;;13.08;63.05;98149.38;131052;1252;107470;-75
2023/03/14 08:33:09;;;;;;;20.80;13.80;;;;;;;13.16;63.07;98154.77;131166;1253;106261;-74
2023/03/14 08:36:15;;;;;;;8.70;5.60;;;;;;;13.26;62.49;98153.73;131249;1252;107593;-75
2023/03/14 08:39:20;;;;;;;10.20;5.90;;;;;;;13.31;62.46;98148.25;131078;1254;107550;-74
2023/03/14 08:42:26;;;;;;;7.50;5.20;;;;;;;13.37;62.85;98153.52;131091;1252;107546;-75
2023/03/14 08:45:32;;;;;;;8.50;4.80;;;;;;;13.40;62.23;98148.09;131061;1252;107721;-75
2023/03/14 08:48:37;;;;;;;6.50;4.20;;;;;;;13.40;61.37;98152.98;131096;1252;107484;-75
2023/03/14 08:51:43;;;;;;;7.70;5.10;;;;;;;13.41;62.25;98154.25;131060;1253;107666;-75
2023/03/14 08:54:49;;;;;;;8.90;5.90;;;;;;;13.46;62.29;98153.17;131241;1252;107536;-75
2023/03/14 08:57:54;;;;;;;8.20;4.70;;;;;;;13.53;62.47;98147.15;131215;1252;107420;-72
2023/03/14 09:01:00;;;;;;;8.20;5.20;;;;;;;13.62;62.22;98138.85;131241;1254;107528;-72
2023/03/14 09:04:06;;;;;;;6.70;3.90;;;;;;;13.70;61.81;98132.59;131414;1252;107601;-73
2023/03/14 09:07:14;;;;;;;6.10;4.40;;;;;;;13.82;61.91;98118.77;131354;1261;107469;-72
2023/03/14 09:10:20;;;;;;;6.20;4.30;;;;;;;13.92;61.14;98116.61;131234;1259;106274;-72
2023/03/14 09:13:26;;;;;;;7.10;4.70;;;;;;;13.98;61.56;98119.12;131329;1261;107505;-76
2023/03/14 09:16:32;;;;;;;6.00;4.30;;;;;;;14.10;60.83;98116.83;131247;1261;107263;-76
2023/03/14 09:19:38;;;;;;;7.70;4.80;;;;;;;14.26;60.69;98123.51;131435;1248;107507;-75
2023/03/14 09:22:43;;;;;;;6.60;4.20;;;;;;;14.37;60.70;98120.08;131189;1261;105663;-75
2023/03/14 09:25:49;;;;;;;8.30;4.80;;;;;;;14.41;60.53;98123.44;131347;1261;108668;-73
2023/03/14 09:28:55;;;;;;;6.90;4.50;;;;;;;14.42;61.02;98126.15;131262;1256;108729;-76
2023/03/14 09:32:01;;;;;;;6.50;4.40;;;;;;;14.38;60.83;98121.52;131395;1253;107507;-75
2023/03/14 09:35:08;;;;;;;7.60;4.10;;;;;;;14.39;61.35;98115.18;131224;1255;107288;-75
2023/03/14 09:38:13;;;;;;;6.20;4.50;;;;;;;14.45;60.81;98113.02;131191;1253;107518;-75
2023/03/14 09:41:25;;;;;;;8.30;5.10;;;;;;;14.52;60.95;98103.41;131064;1263;107473;-74
2023/03/14 09:44:33;;;;;;;8.10;4.50;;;;;;;14.56;59.85;98120.31;131022;1263;107513;-75
2023/03/14 09:47:40;;;;;;;8.10;4.60;;;;;;;14.62;60.75;98117.55;131084;1253;107419;-75
2023/03/14 09:50:49;;;;;;;8.30;5.20;;;;;;;14.78;60.58;98116.55;131103;1263;108741;-76
2023/03/14 09:53:55;;;;;;;7.20;5.30;;;;;;;14.88;59.70;98108.27;131113;1263;107740;-75
2023/03/14 09:57:01;;;;;;;7.60;5.10;;;;;;;14.91;60.02;98099.80;131056;1252;107533;-76
2023/03/14 10:00:15;;;;;;;7.70;4.80;;;;;;;14.97;59.53;98102.51;131054;1251;107365;-73
2023/03/14 10:03:32;;;;;;;8.00;4.90;;;;;;;15.03;59.02;98103.09;131052;1253;107521;-73
2023/03/14 10:06:37;;;;;;;7.70;4.90;;;;;;;15.09;59.13;98122.24;131164;1254;107506;-74
2023/03/14 10:09:46;;;;;;;6.60;4.80;;;;;;;15.08;58.95;98123.55;131062;1254;107352;-73
2023/03/14 10:12:59;;;;;;;8.90;4.80;;;;;;;15.10;58.73;98111.16;131080;1261;107419;-73
2023/03/14 10:16:06;;;;;;;7.60;4.80;;;;;;;15.10;58.50;98110.82;131257;1248;106642;-73
2023/03/14 10:19:15;;;;;;;7.00;4.70;;;;;;;15.10;58.91;98096.65;131309;1254;107535;-73
2023/03/14 10:22:22;;;;;;;7.30;4.60;;;;;;;15.10;58.50;98102.43;131254;1253;106682;-73
2023/03/14 10:25:30;;;;;;;6.60;4.10;;;;;;;15.15;59.04;98104.48;131262;1251;106123;-74
2023/03/14 10:28:43;;;;;;;7.20;4.80;;;;;;;15.23;58.35;98097.18;131164;1254;107614;-74
2023/03/14 10:31:52;;;;;;;6.40;4.50;;;;;;;15.24;57.96;98091.79;131284;1261;107951;-73
2023/03/14 10:35:18;;;;;;;6.50;4.10;;;;;;;15.26;58.91;98103.70;131095;1252;106315;-73
2023/03/14 10:38:27;;;;;;;6.60;4.40;;;;;;;15.34;58.66;98080.64;131074;1252;105588;-73
2023/03/14 10:41:34;;;;;;;6.20;4.20;;;;;;;15.38;58.30;98082.88;131065;1248;106072;-73
2023/03/14 10:44:42;;;;;;;7.70;4.70;;;;;;;15.39;57.85;98088.01;131160;1254;107616;-73
2023/03/14 10:47:52;;;;;;;7.20;4.50;;;;;;;15.34;57.59;98098.30;131223;1263;107433;-73
2023/03/14 10:51:03;;;;;;;7.10;4.80;;;;;;;15.25;58.01;98107.00;131109;1261;107601;-72
2023/03/14 10:54:20;;;;;;;7.60;4.70;;;;;;;15.16;58.17;98108.90;131070;1252;106814;-74
2023/03/14 10:57:26;;;;;;;7.00;5.00;;;;;;;15.02;57.72;98111.92;131227;1253;107112;-73
2023/03/14 11:00:33;;;;;;;7.40;5.10;;;;;;;14.85;58.12;98113.86;131160;1253;108757;-72
2023/03/14 11:03:43;;;;;;;7.60;4.70;;;;;;;14.75;57.96;98108.79;131097;1253;107507;-73
2023/03/14 11:06:58;;;;;;;8.10;5.10;;;;;;;14.63;58.02;98114.12;131075;1254;108407;-73
2023/03/14 11:10:15;;;;;;;6.40;4.60;;;;;;;14.48;58.04;98111.45;131113;1251;107870;-75
2023/03/14 11:13:26;;;;;;;7.10;4.60;;;;;;;14.42;58.65;98114.94;131087;1252;105943;-72
2023/03/14 11:16:43;;;;;;;7.50;4.60;;;;;;;14.44;58.40;98118.23;131152;1252;107517;-73
2023/03/14 11:20:18;;;;;;;8.60;4.60;;;;;;;14.42;58.03;98117.20;131213;1253;106560;-73
2023/03/14 11:23:30;;;;;;;7.80;4.90;;;;;;;14.38;58.60;98124.73;131108;1261;107479;-73
2023/03/14 11:26:43;;;;;;;6.20;4.60;;;;;;;14.33;58.49;98130.01;131156;1261;107538;-75
2023/03/14 11:29:59;;;;;;;6.40;4.70;;;;;;;14.23;58.40;98130.14;131409;1260;107519;-74
2023/03/14 11:33:15;;;;;;;8.00;5.20;;;;;;;14.18;58.44;98125.61;131294;1261;107540;-73
2023/03/14 11:36:28;;;;;;;8.10;5.10;;;;;;;14.22;58.60;98123.65;131364;1253;106569;-74
2023/03/14 11:39:40;;;;;;;7.40;4.90;;;;;;;14.27;58.76;98121.92;131099;1261;107492;-74
2023/03/14 11:42:49;;;;;;;8.60;4.90;;;;;;;14.36;59.00;98114.15;131163;1252;107489;-73
2023/03/14 11:45:59;;;;;;;7.10;4.90;;;;;;;14.44;58.63;98115.59;131180;1254;108604;-74
2023/03/14 11:49:13;;;;;;;7.10;5.00;;;;;;;14.52;58.77;98120.46;131211;1256;107590;-73
2023/03/14 11:52:26;;;;;;;7.50;4.80;;;;;;;14.52;58.57;98128.09;131130;1254;107609;-73
2023/03/14 11:55:35;;;;;;;5.90;4.30;;;;;;;14.44;58.47;98140.94;131250;1248;106730;-73
2023/03/14 11:58:52;;;;;;;7.30;4.70;;;;;;;14.30;58.64;98142.14;131414;1253;107568;-74
2023/03/14 12:02:02;;;;;;;7.50;4.30;;;;;;;14.13;58.40;98141.27;131138;1254;107360;-73
2023/03/14 12:05:31;;;;;;;6.70;3.90;;;;;;;13.96;58.19;98133.09;131142;1248;107907;-74
2023/03/14 12:08:50;;;;;;;6.20;4.10;;;;;;;13.81;58.22;98139.10;131113;1254;107593;-74
2023/03/14 12:11:59;;;;;;;6.00;4.20;;;;;;;13.71;58.60;98131.39;131106;1252;107540;-74
2023/03/14 12:15:06;;;;;;;5.90;4.40;;;;;;;13.63;58.41;98134.44;131093;1248;107531;-73
2023/03/14 12:18:26;;;;;;;6.80;3.90;;;;;;;13.51;58.84;98138.42;131216;1252;106531;-74
2023/03/14 12:21:48;;;;;;;5.90;4.00;;;;;;;13.36;59.09;98140.17;131205;1261;108787;-74
2023/03/14 12:24:58;;;;;;;6.90;4.40;;;;;;;13.20;59.19;98143.55;131384;1261;106551;-74
2023/03/14 12:28:19;;;;;;;6.40;4.30;;;;;;;13.12;59.37;98145.66;131369;1254;107544;-74
2023/03/14 12:31:45;;;;;;;6.70;4.40;;;;;;;13.03;59.89;98151.64;131380;1252;105666;-72
2023/03/14 12:34:50;;;;;;;7.70;4.60;;;;;;;12.95;60.43;98149.00;131241;1261;107458;-73
2023/03/14 12:37:58;;;;;;;8.70;4.40;;;;;;;12.86;61.16;98148.95;131289;1261;107382;-73
2023/03/14 12:41:12;;;;;;;8.20;4.70;;;;;;;12.77;61.76;98152.33;131473;1261;107538;-73
2023/03/14 12:44:45;;;;;;;5.70;4.00;;;;;;;12.68;62.05;98156.11;131441;1254;107555;-74
2023/03/14 12:48:04;;;;;;;6.80;4.50;;;;;;;12.61;62.58;98152.88;131170;1254;107495;-75
2023/03/14 12:51:15;;;;;;;8.10;4.70;;;;;;;12.58;62.85;98152.31;131147;1254;107536;-74
2023/03/14 12:54:38;;;;;;;9.50;5.80;;;;;;;12.53;63.14;98147.95;131186;1253;107461;-75
2023/03/14 12:57:51;;;;;;;6.60;5.10;;;;;;;12.49;63.43;98149.50;131395;1248;107894;-72
2023/03/14 13:01:03;;;;;;;8.00;5.30;;;;;;;12.48;63.69;98152.26;131115;1253;107525;-73
2023/03/14 13:04:13;;;;;;;8.20;5.50;;;;;;;12.52;64.11;98151.45;131366;1261;107511;-72
2023/03/14 13:07:35;;;;;;;6.60;4.30;;;;;;;12.54;64.20;98152.34;131271;1253;107350;-74
2023/03/14 13:10:46;;;;;;;;;;;;;;;12.52;64.39;98148.16;131185;1254;107538;-73
2023/03/14 13:13:58;;;;;;;6.50;3.90;;;;;;;12.48;64.98;98143.92;131093;1254;107541;-72
2023/03/14 13:17:04;;;;;;;8.80;4.60;;;;;;;12.48;65.12;98137.01;131336;1254;107479;-73
2023/03/14 13:20:17;;;;;;;7.80;4.30;;;;;;;12.50;65.11;98127.94;131364;1254;107541;-72
2023/03/14 13:23:25;;;;;;;6.20;4.10;;;;;;;12.52;65.28;98111.54;131371;1254;107378;-72
2023/03/14 13:26:39;;;;;;;7.60;4.60;;;;;;;12.58;65.20;98105.45;135472;1249;107387;-72
2023/03/14 13:29:45;;;;;;;6.50;4.10;;;;;;;12.63;65.47;98103.09;135523;1249;107548;-74
2023/03/14 13:32:52;;;;;;;6.70;4.80;;;;;;;12.65;65.61;98104.15;132392;1251;107389;-75
2023/03/14 13:35:59;;;;;;;8.00;5.30;;;;;;;12.60;65.69;98098.91;135521;1247;107949;-73
2023/03/14 13:39:12;;;;;;;8.90;5.50;;;;;;;12.56;65.85;98096.77;133687;1247;107618;-72
2023/03/14 13:42:19;;;;;;;8.10;5.20;;;;;;;12.51;65.89;98092.77;131330;1252;107305;-73
2023/03/14 13:45:24;;;;;;;8.80;6.80;;;;;;;12.46;66.11;98095.13;131068;1253;105650;-73
2023/03/14 13:48:33;;;;;;;10.20;6.30;;;;;;;12.37;66.25;98095.67;131122;1252;107456;-72
2023/03/14 13:51:41;;;;;;;7.80;6.00;;;;;;;12.29;66.48;98105.62;131418;1254;107502;-73
2023/03/14 13:54:46;;;;;;;8.40;6.10;;;;;;;12.25;66.63;98116.55;131324;1262;107532;-73
2023/03/14 13:57:54;;;;;;;9.60;5.90;;;;;;;12.24;66.90;98115.52;131334;1247;107375;-74
2023/03/14 14:01:04;;;;;;;9.40;5.80;;;;;;;12.25;67.06;98132.23;131380;1248;107480;-73
2023/03/14 14:04:16;;;;;;;10.20;5.70;;;;;;;12.31;67.20;98128.48;131292;1248;107557;-73
2023/03/14 14:07:22;;;;;;;7.70;5.20;;;;;;;12.42;67.34;98120.30;131330;1254;106554;-73
2023/03/14 14:10:29;;;;;;;9.00;5.30;;;;;;;12.52;67.33;98118.28;131120;1254;107745;-72
2023/03/14 14:13:37;;;;;;;8.60;5.30;;;;;;;12.59;67.35;98122.38;131164;1248;106850;-73
2023/03/14 14:16:45;;;;;;;8.70;6.00;;;;;;;12.61;67.63;98120.19;131290;1254;107524;-73
2023/03/14 14:19:52;;;;;;;9.60;5.80;;;;;;;12.60;67.56;98126.04;131149;1252;107556;-73
2023/03/14 14:22:59;;;;;;;9.50;6.20;;;;;;;12.56;67.69;98124.28;131340;1248;108803;-73
2023/03/14 14:26:07;;;;;;;10.30;6.60;;;;;;;12.50;67.79;98121.52;131366;1248;107290;-73
2023/03/14 14:29:26;;;;;;;9.40;6.60;;;;;;;12.45;67.80;98117.19;131333;1253;107440;-73
2023/03/14 14:32:39;;;;;;;11.10;7.00;;;;;;;12.39;68.17;98112.42;131412;1254;107598;-73